Aviation Digital Data Service (ADDS)

Output produced by TAFs form (0745 UTC 29 May 2017)
found at http://www.aviationweather.gov/adds/tafs/
 
METAR text: RJSI 290700Z 21006KT 170V290 9999 FEW060 SCT/// 27/13 Q1008
Conditions at: RJSI (HANAMAKI AIRPORT, JP) observed 0700 UTC 29 May 2017
Temperature: 27.0°C (81°F)
Dewpoint: 13.0°C (55°F) [RH = 42%]
Pressure (altimeter): 29.76 inches Hg (1008.0 mb)
Winds: from the SSW (210 degrees) at 7 MPH (6 knots; 3.1 m/s)
Visibility: 6 or more miles (10+ km)
Ceiling: at least 12,000 feet AGL
Clouds: few clouds at 6000 feet AGL
Weather: no significant weather observed at this time